KCMX/CMX METAR and TAF weather

Enter ICAO airport designator
Station Type Date Time Source
KCMX METAR 2019/08/24 19:53 UTC NOAA

KCMX 241953Z AUTO 10009G17KT 10SM CLR 22/11 A3027 RMK AO2 SLP253 T02170106


Station Type Date Time Source
KCMX Decoded METAR 2019/08/24 19:53 UTC NOAA

Station name not available
Aug 24, 2019 - 03:53 PM EDT / 2019.08.24 1953 UTC
Wind: from the E (100 degrees) at 10 MPH (9 KT) gusting to 20 MPH (17 KT):0
Visibility: 10 mile(s):0
Sky conditions: clear
Temperature: 71.1 F (21.7 C)
Dew Point: 51.1 F (10.6 C)
Relative Humidity: 49%
Pressure (altimeter): 30.27 in. Hg (1025 hPa)
ob: KCMX 241953Z AUTO 10009G17KT 10SM CLR 22/11 A3027 RMK AO2 SLP253 T02170106
cycle: 20

Station Type Date Time Source
KCMX TAF 2019/08/24 18:22 UTC NOAA

TAF KCMX 241720Z 2418/2518 00000KT P6SM FEW035
FM242300 11008KT P6SM SKC
FM250400 14006KT P6SM SKC
FM250600 17006KT P6SM SKC

Example: see airport list